createdAt,value
2023-03-26T00:01:05.732Z,99.90
2023-03-26T00:03:33.761Z,99.90
2023-03-26T00:06:07.751Z,99.90
2023-03-26T00:08:35.857Z,99.90
2023-03-26T00:11:04.381Z,99.90
2023-03-26T00:13:32.213Z,99.90
2023-03-26T00:15:59.355Z,99.90
2023-03-26T00:18:30.777Z,99.90
2023-03-26T00:20:59.066Z,99.90
2023-03-26T00:23:27.426Z,99.90
2023-03-26T00:25:56.158Z,99.90
2023-03-26T00:28:24.177Z,99.90
2023-03-26T00:30:58.134Z,99.90
2023-03-26T00:33:25.163Z,99.90
2023-03-26T00:35:54.130Z,99.90
2023-03-26T00:38:22.550Z,99.90
2023-03-26T00:40:51.206Z,99.90
2023-03-26T00:43:22.418Z,99.90
2023-03-26T00:45:51.583Z,99.90
2023-03-26T00:48:18.915Z,99.90
2023-03-26T00:50:46.986Z,99.90
2023-03-26T00:53:14.960Z,99.90
2023-03-26T00:55:42.942Z,99.90
2023-03-26T00:58:13.406Z,99.90
2023-03-26T01:00:48.485Z,99.90
2023-03-26T01:03:26.702Z,99.90
2023-03-26T01:06:02.775Z,99.90
2023-03-26T01:08:38.415Z,99.90
2023-03-26T01:11:14.361Z,99.90
2023-03-26T01:14:11.002Z,99.90
2023-03-26T01:16:46.119Z,99.90
2023-03-26T01:19:38.290Z,99.90
2023-03-26T01:22:07.262Z,99.90
2023-03-26T01:24:34.069Z,99.90
2023-03-26T01:27:25.815Z,99.90
2023-03-26T01:29:56.716Z,99.90
2023-03-26T01:32:33.684Z,99.90
2023-03-26T01:35:30.656Z,99.90
2023-03-26T01:38:17.605Z,99.90
2023-03-26T01:40:51.535Z,99.90
2023-03-26T01:43:33.858Z,99.90
2023-03-26T01:46:02.231Z,99.90
2023-03-26T01:48:38.488Z,99.90
2023-03-26T01:51:06.232Z,99.90
2023-03-26T01:53:34.446Z,99.90
2023-03-26T01:56:18.393Z,99.90
2023-03-26T01:59:04.190Z,99.90
2023-03-26T02:01:37.823Z,99.90
2023-03-26T02:04:17.137Z,99.90
2023-03-26T02:06:54.060Z,99.90
2023-03-26T02:09:24.006Z,99.90
2023-03-26T02:11:50.929Z,99.90
2023-03-26T02:14:18.481Z,99.90
2023-03-26T02:16:47.218Z,99.90
2023-03-26T02:19:23.553Z,99.90
2023-03-26T02:21:53.259Z,99.90
2023-03-26T02:24:20.208Z,99.90
2023-03-26T02:26:47.239Z,99.90
2023-03-26T02:29:14.938Z,99.90
2023-03-26T02:31:43.483Z,99.90
2023-03-26T02:34:10.522Z,99.90
2023-03-26T02:36:38.038Z,99.90
2023-03-26T02:39:07.375Z,99.90
2023-03-26T02:41:34.464Z,99.90
2023-03-26T02:44:06.897Z,99.90
2023-03-26T02:46:34.080Z,99.90
2023-03-26T02:49:01.054Z,99.90
2023-03-26T02:51:28.968Z,99.90
2023-03-26T02:53:55.932Z,99.90
2023-03-26T02:56:23.071Z,99.90
2023-03-26T02:58:53.512Z,99.90
2023-03-26T03:01:20.504Z,99.90
2023-03-26T03:03:47.536Z,99.90
2023-03-26T03:06:17.297Z,99.90
2023-03-26T03:08:46.135Z,99.90
2023-03-26T03:11:16.058Z,99.90
2023-03-26T03:13:44.029Z,99.90
2023-03-26T03:16:11.204Z,99.90
2023-03-26T03:18:38.199Z,99.90
2023-03-26T03:21:06.157Z,99.90
2023-03-26T03:23:33.306Z,99.90
2023-03-26T03:26:00.260Z,99.90
2023-03-26T03:28:27.333Z,99.90
2023-03-26T03:30:54.779Z,99.90
2023-03-26T03:33:21.912Z,99.90
2023-03-26T03:35:50.423Z,99.90
2023-03-26T03:38:17.947Z,99.90
2023-03-26T03:40:45.438Z,99.90
2023-03-26T03:43:12.333Z,99.90
2023-03-26T03:45:39.412Z,99.90
2023-03-26T03:48:06.439Z,99.90
2023-03-26T03:50:35.639Z,99.90
2023-03-26T03:53:05.792Z,99.90
2023-03-26T03:55:32.791Z,99.90
2023-03-26T03:58:00.004Z,99.90
2023-03-26T04:00:27.178Z,99.90
2023-03-26T04:02:54.592Z,99.90
2023-03-26T04:05:21.965Z,99.90
2023-03-26T04:07:48.918Z,99.90
2023-03-26T04:10:16.174Z,99.90
2023-03-26T04:12:43.108Z,99.90
2023-03-26T04:15:10.194Z,99.90
2023-03-26T04:17:42.429Z,99.90
2023-03-26T04:20:15.954Z,99.90
2023-03-26T04:22:43.787Z,99.90
2023-03-26T04:25:12.108Z,99.90
2023-03-26T04:27:39.608Z,99.90
2023-03-26T04:30:07.343Z,99.90
2023-03-26T04:32:34.457Z,99.90
2023-03-26T04:35:03.944Z,99.90
2023-03-26T04:37:39.809Z,99.90
2023-03-26T04:40:09.771Z,99.90
2023-03-26T04:42:37.855Z,99.90
2023-03-26T04:45:05.769Z,99.90
2023-03-26T04:47:32.669Z,99.90
2023-03-26T04:49:59.556Z,99.90
2023-03-26T04:52:26.529Z,99.90
2023-03-26T04:54:53.349Z,99.90
2023-03-26T04:57:29.847Z,99.90
2023-03-26T04:59:59.644Z,99.90
2023-03-26T05:02:26.702Z,99.90
2023-03-26T05:04:53.705Z,99.90
2023-03-26T05:07:23.966Z,99.90
2023-03-26T05:09:51.175Z,99.90
2023-03-26T05:12:18.167Z,99.90
2023-03-26T05:14:45.111Z,99.90
2023-03-26T05:17:14.933Z,99.90
2023-03-26T05:19:41.980Z,99.90
2023-03-26T05:22:09.240Z,99.90
2023-03-26T05:24:36.172Z,99.90
2023-03-26T05:27:03.536Z,99.90
2023-03-26T05:29:30.594Z,99.90
2023-03-26T05:31:57.562Z,99.90
2023-03-26T05:34:26.359Z,99.90
2023-03-26T05:36:53.805Z,99.90
2023-03-26T05:39:25.785Z,99.90
2023-03-26T05:41:53.228Z,99.90
2023-03-26T05:44:20.325Z,99.90
2023-03-26T05:46:47.392Z,99.90
2023-03-26T05:49:14.225Z,99.90
2023-03-26T05:51:41.281Z,99.90
2023-03-26T05:54:08.250Z,99.90
2023-03-26T05:56:36.049Z,99.90
2023-03-26T05:59:03.076Z,99.90
2023-03-26T06:01:29.977Z,99.90
2023-03-26T06:03:57.322Z,99.90
2023-03-26T06:06:24.496Z,99.90
2023-03-26T06:09:02.152Z,99.90
2023-03-26T06:11:32.830Z,99.90
2023-03-26T06:14:00.354Z,99.90
2023-03-26T06:16:28.225Z,99.90
2023-03-26T06:18:57.384Z,99.90
2023-03-26T06:21:28.426Z,99.90
2023-03-26T06:23:55.954Z,99.90
2023-03-26T06:26:23.097Z,99.90
2023-03-26T06:28:50.170Z,99.90
2023-03-26T06:31:19.279Z,99.90
2023-03-26T06:33:47.063Z,99.90
2023-03-26T06:36:14.210Z,99.90
2023-03-26T06:38:41.321Z,99.90
2023-03-26T06:41:08.242Z,99.90
2023-03-26T06:43:36.320Z,99.90
2023-03-26T06:46:04.114Z,99.90
2023-03-26T06:48:31.448Z,99.90
2023-03-26T06:50:59.117Z,99.90
2023-03-26T06:53:26.199Z,99.90
2023-03-26T06:55:54.274Z,99.90
2023-03-26T06:58:21.944Z,99.90
2023-03-26T07:00:49.053Z,99.90
2023-03-26T07:03:17.371Z,99.90
2023-03-26T07:05:44.344Z,99.90
2023-03-26T07:08:11.568Z,99.90
2023-03-26T07:10:38.513Z,99.90
2023-03-26T07:13:05.659Z,99.90
2023-03-26T07:15:32.794Z,99.90
2023-03-26T07:17:59.711Z,99.90
2023-03-26T07:20:27.003Z,99.90
2023-03-26T07:22:54.294Z,99.90
2023-03-26T07:25:21.621Z,99.90
2023-03-26T07:27:51.812Z,99.90
2023-03-26T07:30:48.378Z,99.90
2023-03-26T07:33:38.809Z,99.90
2023-03-26T07:36:28.254Z,99.90
2023-03-26T07:39:17.565Z,99.90
2023-03-26T07:41:54.162Z,99.90
2023-03-26T07:44:35.739Z,99.90
2023-03-26T07:47:11.556Z,99.90
2023-03-26T07:49:38.937Z,99.90
2023-03-26T07:52:06.580Z,99.90
2023-03-26T07:54:36.920Z,99.90
2023-03-26T07:57:06.630Z,99.90
2023-03-26T07:59:46.080Z,99.90
2023-03-26T08:02:28.928Z,99.90
2023-03-26T08:05:01.773Z,99.90
2023-03-26T08:07:31.798Z,99.90
2023-03-26T08:10:20.842Z,99.90
2023-03-26T08:13:12.660Z,99.90
2023-03-26T08:16:08.846Z,99.90
2023-03-26T08:19:00.703Z,99.90
2023-03-26T08:21:31.815Z,99.90
2023-03-26T08:24:04.879Z,99.90
2023-03-26T08:26:47.703Z,99.90
2023-03-26T08:29:26.793Z,99.90
2023-03-26T08:31:54.040Z,99.90
2023-03-26T08:34:21.018Z,99.90
2023-03-26T08:36:47.963Z,99.90
2023-03-26T08:39:14.933Z,99.90
2023-03-26T08:42:08.344Z,99.90
2023-03-26T08:44:48.860Z,99.90
2023-03-26T08:47:42.721Z,99.90
2023-03-26T08:50:32.400Z,99.90
2023-03-26T08:53:39.954Z,99.90
2023-03-26T08:56:13.260Z,99.90
2023-03-26T08:59:04.912Z,99.90
2023-03-26T09:02:06.272Z,99.90
2023-03-26T09:05:04.359Z,99.90
2023-03-26T09:07:45.391Z,99.90
2023-03-26T09:10:21.381Z,99.90
2023-03-26T09:13:07.228Z,99.90
2023-03-26T09:15:52.282Z,99.90
2023-03-26T09:18:45.420Z,99.90
2023-03-26T09:21:27.566Z,99.90
2023-03-26T09:24:14.584Z,99.90
2023-03-26T09:26:51.432Z,99.90
2023-03-26T09:29:56.108Z,99.90
2023-03-26T09:32:45.620Z,99.90
2023-03-26T09:35:21.913Z,99.90
2023-03-26T09:38:10.790Z,99.90
2023-03-26T09:41:01.511Z,99.90
2023-03-26T09:43:42.385Z,99.90
2023-03-26T09:46:36.861Z,99.90
2023-03-26T09:49:17.377Z,99.90
2023-03-26T09:52:01.578Z,99.90
2023-03-26T09:54:48.611Z,99.90
2023-03-26T10:03:17.690Z,99.90
2023-03-26T10:06:21.696Z,99.90
2023-03-26T10:09:10.870Z,99.90
2023-03-26T10:12:01.948Z,99.90
2023-03-26T10:14:32.714Z,99.90
2023-03-26T10:17:44.769Z,99.90
2023-03-26T10:20:47.514Z,99.90
2023-03-26T10:23:20.426Z,99.90
2023-03-26T10:26:06.099Z,99.90
2023-03-26T10:28:51.113Z,99.90
2023-03-26T10:31:27.134Z,99.90
2023-03-26T10:34:00.290Z,99.90
2023-03-26T10:36:38.383Z,99.90
2023-03-26T10:39:38.202Z,99.90
2023-03-26T10:42:22.819Z,99.90
2023-03-26T10:45:07.348Z,99.90
2023-03-26T10:47:52.652Z,99.90
2023-03-26T10:50:38.172Z,99.90
2023-03-26T10:53:25.714Z,99.90
2023-03-26T10:55:55.379Z,99.90
2023-03-26T10:58:27.596Z,99.90
2023-03-26T11:01:05.520Z,99.90
2023-03-26T11:03:43.834Z,99.90
2023-03-26T11:06:28.901Z,99.90
2023-03-26T11:09:22.641Z,99.90
2023-03-26T11:12:26.245Z,99.90
2023-03-26T11:15:01.366Z,99.90
2023-03-26T11:17:40.198Z,99.90
2023-03-26T11:20:14.452Z,99.90
2023-03-26T11:22:54.969Z,99.90
2023-03-26T11:25:31.434Z,99.90
2023-03-26T11:28:17.270Z,99.90
2023-03-26T11:30:44.174Z,99.90
2023-03-26T11:33:17.667Z,99.90
2023-03-26T11:35:47.624Z,99.90
2023-03-26T11:38:29.589Z,99.90
2023-03-26T11:40:57.049Z,99.90
2023-03-26T11:43:26.645Z,99.90
2023-03-26T11:45:54.075Z,99.90
2023-03-26T11:48:38.971Z,99.90
2023-03-26T11:51:07.773Z,99.90
2023-03-26T11:53:38.622Z,99.90
2023-03-26T11:56:09.307Z,99.90
2023-03-26T11:58:48.074Z,99.90
2023-03-26T12:01:16.625Z,99.90
2023-03-26T12:03:44.093Z,99.90
2023-03-26T12:06:25.714Z,99.80
2023-03-26T12:08:55.054Z,98.60
2023-03-26T12:11:28.265Z,98.50
2023-03-26T12:13:58.589Z,98.20
2023-03-26T12:16:26.502Z,97.90
2023-03-26T12:19:01.888Z,96.60
2023-03-26T12:21:28.919Z,96.30
2023-03-26T12:23:57.141Z,96.00
2023-03-26T12:26:39.628Z,95.70
2023-03-26T12:29:12.135Z,94.80
2023-03-26T12:31:43.099Z,94.40
2023-03-26T12:34:18.683Z,94.40
2023-03-26T12:37:00.943Z,94.80
2023-03-26T12:40:08.794Z,93.80
2023-03-26T12:44:53.577Z,91.90
2023-03-26T12:45:42.618Z,91.30
2023-03-26T12:48:14.232Z,89.30
2023-03-26T12:51:02.625Z,87.20
2023-03-26T12:53:47.195Z,85.00
2023-03-26T12:56:38.557Z,85.00
2023-03-26T12:59:08.618Z,84.40
2023-03-26T13:01:38.193Z,82.40
2023-03-26T13:04:08.428Z,79.60
2023-03-26T13:06:59.476Z,80.00
2023-03-26T13:09:31.820Z,79.20
2023-03-26T13:12:25.811Z,77.10
2023-03-26T13:15:06.859Z,75.90
2023-03-26T13:17:35.905Z,74.90
2023-03-26T13:23:14.328Z,73.10
2023-03-26T13:26:18.517Z,75.00
2023-03-26T13:29:10.284Z,74.90
2023-03-26T13:31:46.242Z,75.50
2023-03-26T13:34:48.721Z,74.30
2023-03-26T13:37:24.594Z,73.20
2023-03-26T13:40:36.184Z,71.80
2023-03-26T13:43:06.204Z,71.90
2023-03-26T13:45:42.218Z,70.30
2023-03-26T13:48:13.929Z,69.60
2023-03-26T13:50:42.342Z,68.90
2023-03-26T13:53:21.987Z,69.10
2023-03-26T13:55:52.506Z,68.80
2023-03-26T13:58:24.638Z,69.90
2023-03-26T14:01:05.602Z,71.00
2023-03-26T14:03:45.440Z,71.20
2023-03-26T14:06:34.023Z,71.60
2023-03-26T14:09:07.840Z,72.40
2023-03-26T14:11:40.760Z,71.60
2023-03-26T14:14:16.908Z,72.60
2023-03-26T14:16:46.438Z,73.70
2023-03-26T14:20:05.394Z,74.30
2023-03-26T14:22:33.530Z,75.00
2023-03-26T14:25:12.878Z,77.80
2023-03-26T14:28:04.365Z,79.90
2023-03-26T14:30:42.694Z,82.50
2023-03-26T14:33:28.268Z,83.50
2023-03-26T14:35:58.806Z,85.10
2023-03-26T14:38:44.186Z,85.10
2023-03-26T14:41:25.553Z,85.50
2023-03-26T14:44:24.887Z,84.60
2023-03-26T14:47:07.186Z,84.90
2023-03-26T14:49:55.932Z,85.00
2023-03-26T14:52:29.629Z,85.20
2023-03-26T14:54:58.251Z,85.70
2023-03-26T14:57:36.419Z,85.90
2023-03-26T15:00:31.550Z,87.20
2023-03-26T15:03:27.777Z,88.30
2023-03-26T15:06:16.333Z,89.00
2023-03-26T15:08:55.824Z,88.90
2023-03-26T15:11:30.352Z,88.80
2023-03-26T15:14:19.046Z,89.40
2023-03-26T15:17:12.999Z,90.00
2023-03-26T15:19:54.112Z,90.40
2023-03-26T15:22:33.116Z,90.20
2023-03-26T15:25:37.460Z,90.60
2023-03-26T15:28:22.947Z,90.80
2023-03-26T15:31:00.899Z,91.10
2023-03-26T15:33:34.244Z,91.40
2023-03-26T15:36:21.479Z,91.60
2023-03-26T15:38:57.643Z,91.80
2023-03-26T15:41:54.000Z,92.40
2023-03-26T15:44:25.532Z,93.00
2023-03-26T15:47:21.037Z,93.30
2023-03-26T15:49:59.172Z,93.40
2023-03-26T15:52:33.589Z,94.10
2023-03-26T15:55:09.124Z,94.60
2023-03-26T15:57:43.055Z,94.40
2023-03-26T16:00:22.521Z,94.30
2023-03-26T16:03:13.030Z,94.40
2023-03-26T16:06:07.597Z,94.70
2023-03-26T16:09:03.409Z,95.00
2023-03-26T16:11:44.864Z,94.80
2023-03-26T16:14:20.462Z,94.60
2023-03-26T16:16:59.209Z,94.60
2023-03-26T16:19:49.588Z,94.80
2023-03-26T16:22:43.726Z,95.10
2023-03-26T16:25:27.298Z,95.20
2023-03-26T16:28:29.851Z,95.50
2023-03-26T16:31:10.765Z,95.90
2023-03-26T16:34:07.222Z,96.40
2023-03-26T16:36:38.919Z,96.70
2023-03-26T16:39:05.781Z,97.20
2023-03-26T16:41:34.768Z,97.60
2023-03-26T16:44:20.749Z,97.90
2023-03-26T16:47:00.161Z,98.30
2023-03-26T16:50:10.584Z,98.60
2023-03-26T16:52:56.194Z,98.80
2023-03-26T16:55:34.591Z,98.80
2023-03-26T16:58:31.184Z,98.90
2023-03-26T17:01:27.440Z,99.10
2023-03-26T17:03:57.036Z,99.50
2023-03-26T17:06:30.696Z,99.90
2023-03-26T17:09:09.357Z,99.90
2023-03-26T17:12:13.068Z,99.90
2023-03-26T17:14:55.658Z,99.90
2023-03-26T17:17:37.083Z,99.90
2023-03-26T17:20:12.444Z,99.90
2023-03-26T17:22:57.865Z,99.90
2023-03-26T17:25:58.583Z,99.90
2023-03-26T17:28:48.283Z,99.90
2023-03-26T17:31:21.182Z,99.90
2023-03-26T17:33:48.367Z,99.90
2023-03-26T17:36:41.207Z,99.90
2023-03-26T17:39:40.906Z,99.90
2023-03-26T17:42:40.059Z,99.90
2023-03-26T17:45:20.969Z,99.90
2023-03-26T17:47:50.906Z,99.90
2023-03-26T17:51:03.377Z,99.90
2023-03-26T17:53:31.744Z,99.90
2023-03-26T17:56:03.371Z,99.90
2023-03-26T17:58:45.322Z,99.90
2023-03-26T18:01:36.157Z,99.90
2023-03-26T18:04:04.801Z,99.90
2023-03-26T18:06:37.693Z,99.90
2023-03-26T18:09:22.816Z,99.90
2023-03-26T18:12:04.204Z,99.90
2023-03-26T18:14:59.460Z,99.90
2023-03-26T18:17:26.399Z,99.90
2023-03-26T18:20:06.137Z,99.90
2023-03-26T18:22:33.570Z,99.90
2023-03-26T18:25:02.164Z,99.90
2023-03-26T18:27:34.151Z,99.90
2023-03-26T18:30:03.030Z,99.90
2023-03-26T18:32:33.772Z,99.90
2023-03-26T18:35:21.928Z,99.90
2023-03-26T18:37:50.109Z,99.90
2023-03-26T18:40:20.201Z,99.90
2023-03-26T18:42:56.313Z,99.90
2023-03-26T18:45:23.117Z,99.90
2023-03-26T18:47:54.101Z,99.90
2023-03-26T18:50:26.031Z,99.90
2023-03-26T18:52:53.432Z,99.90
2023-03-26T18:55:20.506Z,99.90
2023-03-26T18:57:47.363Z,99.90
2023-03-26T19:00:25.642Z,99.90
2023-03-26T19:03:06.542Z,99.90
2023-03-26T19:05:37.339Z,99.90
2023-03-26T19:08:05.354Z,99.90
2023-03-26T19:10:33.134Z,99.90
2023-03-26T19:13:01.816Z,99.90
2023-03-26T19:15:31.431Z,99.90
2023-03-26T19:18:07.299Z,99.90
2023-03-26T19:20:44.779Z,99.90
2023-03-26T19:23:17.917Z,99.90
2023-03-26T19:25:55.405Z,99.90
2023-03-26T19:28:28.513Z,99.90
2023-03-26T19:30:59.213Z,99.90
2023-03-26T19:33:34.073Z,99.90
2023-03-26T19:36:13.730Z,99.90
2023-03-26T19:38:49.266Z,99.90
2023-03-26T19:41:47.667Z,99.90
2023-03-26T19:44:41.210Z,99.90
2023-03-26T19:47:31.893Z,99.90
2023-03-26T19:50:29.648Z,99.90
2023-03-26T19:53:18.536Z,99.90
2023-03-26T19:55:59.527Z,99.90
2023-03-26T19:58:27.255Z,99.90
2023-03-26T20:00:56.087Z,99.90
2023-03-26T20:03:29.208Z,99.90
2023-03-26T20:05:56.618Z,99.90
2023-03-26T20:08:29.545Z,99.90
2023-03-26T20:10:57.066Z,99.90
2023-03-26T20:13:24.228Z,99.90
2023-03-26T20:16:05.844Z,99.90
2023-03-26T20:18:36.836Z,99.90
2023-03-26T20:21:09.634Z,99.90
2023-03-26T20:23:37.143Z,99.90
2023-03-26T20:26:04.040Z,99.90
2023-03-26T20:28:35.443Z,99.90
2023-03-26T20:31:12.299Z,99.90
2023-03-26T20:33:39.603Z,99.90
2023-03-26T20:36:11.389Z,99.90
2023-03-26T20:38:40.050Z,99.90
2023-03-26T20:41:10.299Z,99.90
2023-03-26T20:43:37.416Z,99.90
2023-03-26T20:46:04.513Z,99.90
2023-03-26T20:48:32.110Z,99.90
2023-03-26T20:50:59.176Z,99.90
2023-03-26T20:53:26.927Z,99.90
2023-03-26T20:55:53.983Z,99.90
2023-03-26T20:58:32.030Z,99.90
2023-03-26T21:01:01.148Z,99.90
2023-03-26T21:03:28.289Z,99.90
2023-03-26T21:06:04.964Z,99.90
2023-03-26T21:08:35.619Z,99.90
2023-03-26T21:11:10.891Z,99.90
2023-03-26T21:13:43.146Z,99.90
2023-03-26T21:16:10.732Z,99.90
2023-03-26T21:18:38.058Z,99.90
2023-03-26T21:21:36.857Z,99.90
2023-03-26T21:24:09.857Z,99.90
2023-03-26T21:26:43.718Z,99.90
2023-03-26T21:29:11.921Z,99.90
2023-03-26T21:31:39.291Z,99.90
2023-03-26T21:34:07.269Z,99.90
2023-03-26T21:36:35.185Z,99.90
2023-03-26T21:39:03.299Z,99.90
2023-03-26T21:41:41.346Z,99.90
2023-03-26T21:44:08.647Z,99.90
2023-03-26T21:46:35.894Z,99.90
2023-03-26T21:49:03.360Z,99.90
2023-03-26T21:51:30.588Z,99.90
2023-03-26T21:53:57.853Z,99.90
2023-03-26T21:56:30.975Z,99.90
2023-03-26T21:59:06.993Z,99.90
2023-03-26T22:01:35.217Z,99.90
2023-03-26T22:04:07.563Z,99.90
2023-03-26T22:07:05.276Z,99.90
2023-03-26T22:09:36.325Z,99.90
2023-03-26T22:12:04.791Z,99.90
2023-03-26T22:14:31.713Z,99.90
2023-03-26T22:16:58.646Z,99.90
2023-03-26T22:19:25.578Z,99.90
2023-03-26T22:21:52.463Z,99.90
2023-03-26T22:24:19.914Z,99.90
2023-03-26T22:26:47.185Z,99.90
2023-03-26T22:29:14.601Z,99.90
2023-03-26T22:31:42.171Z,99.90
2023-03-26T22:34:09.378Z,99.90
2023-03-26T22:36:37.960Z,99.90
2023-03-26T22:39:07.229Z,99.90
2023-03-26T22:41:34.163Z,99.90
2023-03-26T22:44:12.807Z,99.90
2023-03-26T22:46:40.567Z,99.90
2023-03-26T22:49:07.566Z,99.90
2023-03-26T22:51:34.903Z,99.90
2023-03-26T22:54:02.314Z,99.90
2023-03-26T22:56:29.373Z,99.90
2023-03-26T22:58:56.722Z,99.90
2023-03-26T23:01:24.995Z,99.90
2023-03-26T23:03:52.031Z,99.90
2023-03-26T23:06:18.887Z,99.90
2023-03-26T23:08:46.269Z,99.90
2023-03-26T23:11:18.188Z,99.90
2023-03-26T23:13:45.575Z,99.90
2023-03-26T23:16:13.126Z,99.90
2023-03-26T23:18:41.125Z,99.90
2023-03-26T23:21:13.725Z,99.90
2023-03-26T23:23:41.070Z,99.90
2023-03-26T23:26:08.118Z,99.90
2023-03-26T23:28:35.564Z,99.90
2023-03-26T23:31:05.159Z,99.90
2023-03-26T23:33:35.659Z,99.90
2023-03-26T23:36:08.802Z,99.90
2023-03-26T23:38:43.399Z,99.90
2023-03-26T23:41:15.330Z,99.90
2023-03-26T23:43:53.451Z,99.90
2023-03-26T23:46:33.168Z,99.90
2023-03-26T23:49:02.295Z,99.90
2023-03-26T23:51:30.409Z,99.90
2023-03-26T23:53:57.802Z,99.90
2023-03-26T23:56:24.900Z,99.90
2023-03-26T23:58:52.053Z,99.90
